Time;durP1;ratioP1;P1;durP2;ratioP2;P2;SDS_P1;SDS_P2;PMS_P1;PMS_P2;Temp;Humidity;BMP_temperature;BMP_pressure;BME280_temperature;BME280_humidity;BME280_pressure;Samples;Min_cycle;Max_cycle;Signal;HPM_P1;HPM_P2
2022/11/08 00:03:30;;;;;;;12.75;2.95;;;12.90;99.90;;;;;;6157679;23;20021;-82
2022/11/08 00:14:08;;;;;;;10.70;2.90;;;13.00;99.90;;;;;;6248052;22;20016;-83
2022/11/08 00:16:33;;;;;;;13.18;2.70;;;13.00;99.90;;;;;;6276547;22;20043;-82
2022/11/08 00:19:00;;;;;;;21.40;3.10;;;13.00;99.90;;;;;;6248557;22;20019;-82
2022/11/08 00:21:26;;;;;;;18.23;3.08;;;13.00;99.90;;;;;;6276022;22;20008;-82
2022/11/08 00:23:52;;;;;;;13.98;2.65;;;13.00;99.90;;;;;;6248547;22;20070;-82
2022/11/08 00:26:17;;;;;;;16.05;2.83;;;13.00;99.90;;;;;;6249302;22;20012;-82
2022/11/08 00:28:43;;;;;;;11.15;2.65;;;13.00;99.90;;;;;;6274406;22;20020;-82
2022/11/08 00:31:08;;;;;;;13.43;2.70;;;13.10;99.90;;;;;;6249183;22;20015;-82
2022/11/08 00:33:34;;;;;;;13.23;2.60;;;13.00;99.90;;;;;;6276452;22;20380;-82
2022/11/08 00:36:01;;;;;;;10.88;2.47;;;13.10;99.90;;;;;;6247986;22;20015;-82
2022/11/08 00:38:27;;;;;;;13.63;2.90;;;13.10;99.90;;;;;;6249133;22;20046;-82
2022/11/08 00:40:52;;;;;;;15.93;2.70;;;13.00;99.90;;;;;;6248801;22;20016;-82
2022/11/08 00:43:18;;;;;;;12.05;2.25;;;13.10;99.90;;;;;;6247971;22;20020;-82
2022/11/08 00:45:44;;;;;;;11.48;2.15;;;13.00;99.90;;;;;;6275137;22;20016;-82
2022/11/08 00:48:09;;;;;;;13.18;2.90;;;13.10;99.90;;;;;;6250342;22;20022;-82
2022/11/08 00:50:38;;;;;;;14.73;2.88;;;13.00;99.90;;;;;;6277398;22;20012;-82
2022/11/08 00:53:03;;;;;;;13.23;2.60;;;13.10;99.90;;;;;;6278206;22;20526;-82
2022/11/08 00:55:29;;;;;;;15.38;2.80;;;13.00;99.90;;;;;;6250337;22;20051;-82
2022/11/08 00:57:55;;;;;;;14.23;2.60;;;13.00;99.90;;;;;;6276453;22;20044;-82
2022/11/08 01:00:20;;;;;;;12.40;2.63;;;13.00;99.90;;;;;;6278160;22;20019;-82
2022/11/08 01:02:46;;;;;;;12.65;2.30;;;13.00;99.90;;;;;;6250015;22;20020;-82
2022/11/08 01:05:12;;;;;;;12.82;2.38;;;13.00;99.90;;;;;;6276918;22;20011;-82
2022/11/08 01:07:37;;;;;;;13.43;2.67;;;13.00;99.90;;;;;;6278341;22;20012;-82
2022/11/08 01:10:04;;;;;;;10.63;2.40;;;13.00;99.90;;;;;;6277321;22;20016;-82
2022/11/08 01:12:30;;;;;;;10.50;2.30;;;13.00;99.90;;;;;;6277843;22;20107;-82
2022/11/08 01:14:55;;;;;;;11.90;2.53;;;13.00;99.90;;;;;;6250517;22;20055;-83
2022/11/08 01:17:21;;;;;;;14.48;2.92;;;13.00;99.90;;;;;;6249886;22;20090;-82
2022/11/08 01:19:47;;;;;;;13.57;2.65;;;12.90;99.90;;;;;;6250409;22;20388;-82
2022/11/08 01:22:12;;;;;;;11.80;2.55;;;12.90;99.90;;;;;;6251290;22;20066;-82
2022/11/08 01:24:38;;;;;;;11.27;2.65;;;12.90;99.90;;;;;;6250041;22;20012;-82
2022/11/08 01:27:03;;;;;;;13.43;2.65;;;12.90;99.90;;;;;;6277822;22;20012;-82
2022/11/08 01:29:29;;;;;;;9.80;2.13;;;12.90;99.90;;;;;;6251004;22;20012;-82
2022/11/08 01:31:54;;;;;;;13.73;2.90;;;12.80;99.90;;;;;;6276965;22;20061;-82
2022/11/08 01:34:20;;;;;;;13.07;2.60;;;12.90;99.90;;;;;;6250624;22;20325;-82
2022/11/08 01:36:45;;;;;;;14.25;3.22;;;12.80;99.90;;;;;;6277110;22;20098;-82
2022/11/08 01:39:11;;;;;;;12.85;2.80;;;12.80;99.90;;;;;;6249371;22;20022;-82
2022/11/08 01:41:38;;;;;;;16.05;3.60;;;12.80;99.90;;;;;;6277840;22;20022;-81
2022/11/08 01:44:03;;;;;;;11.57;3.30;;;12.80;99.90;;;;;;6249664;22;20015;-82
2022/11/08 01:46:36;;;;;;;11.95;2.70;;;12.80;99.90;;;;;;6249165;22;20062;-82
2022/11/08 01:49:30;;;;;;;15.38;3.15;;;12.80;99.90;;;;;;6249949;22;20452;-82
2022/11/08 01:52:34;;;;;;;12.90;2.90;;;12.80;99.90;;;;;;6249980;22;20015;-82
2022/11/08 01:55:17;;;;;;;13.35;3.25;;;12.80;99.90;;;;;;6158562;23;20053;-82
2022/11/08 01:57:55;;;;;;;13.32;2.90;;;12.70;99.90;;;;;;6158856;23;20019;-82
2022/11/08 02:00:21;;;;;;;10.05;2.80;;;12.70;99.90;;;;;;6218775;22;20340;-82
2022/11/08 02:02:54;;;;;;;9.73;2.90;;;12.70;99.90;;;;;;6249669;22;20016;-83
2022/11/08 02:05:23;;;;;;;14.27;2.97;;;12.70;99.90;;;;;;6250113;22;20027;-82
2022/11/08 02:07:54;;;;;;;12.60;2.97;;;12.70;99.90;;;;;;6249030;22;20523;-82
2022/11/08 02:10:23;;;;;;;15.68;2.80;;;12.70;99.90;;;;;;6250171;22;20163;-82
2022/11/08 02:12:51;;;;;;;14.73;3.03;;;12.70;99.90;;;;;;6277258;22;20023;-82
2022/11/08 02:15:18;;;;;;;13.07;2.85;;;12.60;99.90;;;;;;6249766;22;20103;-82
2022/11/08 02:17:44;;;;;;;15.43;3.10;;;12.60;99.90;;;;;;6275486;22;20061;-83
2022/11/08 02:20:10;;;;;;;12.63;2.55;;;12.60;99.90;;;;;;6277583;22;20016;-82
2022/11/08 02:22:45;;;;;;;12.30;3.10;;;12.60;99.90;;;;;;6277035;22;20011;-82
2022/11/08 02:25:11;;;;;;;12.73;3.35;;;12.60;99.90;;;;;;6276974;22;20424;-83
2022/11/08 02:27:37;;;;;;;11.95;2.75;;;12.60;99.90;;;;;;6248949;22;20340;-83
2022/11/08 02:30:03;;;;;;;10.30;2.45;;;12.60;99.90;;;;;;6249441;22;20026;-82
2022/11/08 02:32:41;;;;;;;11.95;3.35;;;12.60;99.90;;;;;;6248984;22;20325;-82
2022/11/08 02:35:12;;;;;;;11.32;2.72;;;12.60;99.90;;;;;;6275959;22;20018;-82
2022/11/08 02:37:38;;;;;;;11.80;2.80;;;12.50;99.90;;;;;;6249870;22;20026;-82
2022/11/08 02:40:04;;;;;;;13.77;2.40;;;12.50;99.90;;;;;;6275995;22;20015;-82
2022/11/08 02:42:30;;;;;;;14.95;2.67;;;12.50;99.90;;;;;;6248936;22;20440;-82
2022/11/08 02:44:55;;;;;;;9.20;2.40;;;12.40;99.90;;;;;;6249096;22;20023;-82
2022/11/08 02:47:22;;;;;;;10.75;2.38;;;12.40;99.90;;;;;;6250607;22;20012;-82
2022/11/08 02:49:49;;;;;;;9.18;1.92;;;12.40;99.90;;;;;;6248472;22;20016;-82
2022/11/08 02:52:15;;;;;;;12.43;2.20;;;12.40;99.90;;;;;;6249729;22;20019;-82
2022/11/08 02:54:40;;;;;;;10.30;2.38;;;12.40;99.90;;;;;;6249693;22;20016;-82
2022/11/08 02:57:06;;;;;;;9.52;2.30;;;12.40;99.90;;;;;;6249052;22;20015;-82
2022/11/08 02:59:31;;;;;;;10.77;2.40;;;12.30;99.90;;;;;;6276681;22;20019;-82
2022/11/08 03:01:57;;;;;;;7.82;2.08;;;12.30;99.90;;;;;;6249727;22;20092;-82
2022/11/08 03:04:23;;;;;;;9.95;2.40;;;12.30;99.90;;;;;;6248638;22;20011;-82
2022/11/08 03:06:48;;;;;;;13.00;2.30;;;12.30;99.90;;;;;;6276916;22;20016;-82
2022/11/08 03:09:14;;;;;;;10.23;2.28;;;12.30;99.90;;;;;;6276854;22;20027;-82
2022/11/08 03:11:39;;;;;;;9.27;2.30;;;12.30;99.90;;;;;;6276042;22;20018;-82
2022/11/08 03:14:05;;;;;;;11.93;2.38;;;12.20;99.90;;;;;;6249129;22;20019;-82
2022/11/08 03:16:31;;;;;;;9.20;2.40;;;12.20;99.90;;;;;;6276148;22;20018;-82
2022/11/08 03:18:56;;;;;;;12.13;2.42;;;12.20;99.90;;;;;;6249033;22;20106;-82
2022/11/08 03:21:22;;;;;;;8.52;2.00;;;12.20;99.90;;;;;;6249534;22;20015;-82
2022/11/08 03:23:47;;;;;;;10.25;2.25;;;12.20;99.90;;;;;;6248430;22;20450;-83
2022/11/08 03:26:13;;;;;;;9.40;2.45;;;12.20;99.90;;;;;;6276737;22;20012;-82
2022/11/08 03:28:38;;;;;;;11.45;2.05;;;12.20;99.90;;;;;;6276611;22;20038;-82
2022/11/08 03:31:04;;;;;;;6.55;1.70;;;12.10;99.90;;;;;;6276024;22;20459;-82
2022/11/08 03:33:30;;;;;;;6.70;2.03;;;12.10;99.90;;;;;;6277030;22;20015;-82
2022/11/08 03:35:55;;;;;;;12.57;2.50;;;12.10;99.90;;;;;;6248876;22;20816;-82
2022/11/08 03:38:21;;;;;;;12.52;2.20;;;12.10;99.90;;;;;;6248495;22;20386;-82
2022/11/08 03:40:46;;;;;;;8.95;2.42;;;12.10;99.90;;;;;;6248814;22;20081;-82
2022/11/08 03:43:12;;;;;;;8.00;1.92;;;12.10;99.90;;;;;;6249668;22;20016;-83
2022/11/08 03:45:38;;;;;;;10.88;2.40;;;12.10;99.90;;;;;;6275496;22;20016;-82
2022/11/08 03:48:04;;;;;;;11.48;2.50;;;12.10;99.90;;;;;;6248823;22;20019;-82
2022/11/08 03:50:30;;;;;;;8.82;1.92;;;12.10;99.90;;;;;;6249466;22;20043;-82
2022/11/08 03:52:55;;;;;;;11.07;2.50;;;12.00;99.90;;;;;;6275764;22;20093;-82
2022/11/08 03:55:24;;;;;;;10.40;2.35;;;12.00;99.90;;;;;;6275988;22;20016;-82
2022/11/08 03:57:50;;;;;;;12.52;2.40;;;12.00;99.90;;;;;;6248803;22;20020;-82
2022/11/08 04:00:19;;;;;;;7.28;1.80;;;12.00;99.90;;;;;;6248176;22;20012;-82
2022/11/08 04:02:45;;;;;;;7.18;1.90;;;12.00;99.90;;;;;;6275876;22;20050;-82
2022/11/08 04:05:12;;;;;;;6.35;1.88;;;12.00;99.90;;;;;;6276576;22;20012;-82
2022/11/08 04:07:38;;;;;;;10.00;1.92;;;11.90;99.90;;;;;;6247912;22;20146;-82
2022/11/08 04:10:05;;;;;;;8.18;2.00;;;12.00;99.90;;;;;;6248537;22;20530;-82
2022/11/08 04:15:18;;;;;;;9.43;1.90;;;11.90;99.90;;;;;;6248932;22;20020;-82
2022/11/08 04:23:16;;;;;;;9.75;2.22;;;11.80;99.90;;;;;;6249046;22;20016;-82
2022/11/08 04:25:42;;;;;;;10.13;2.10;;;11.80;99.90;;;;;;6276445;22;20599;-82
2022/11/08 04:28:08;;;;;;;10.77;2.20;;;11.80;99.90;;;;;;6275174;22;20502;-81
2022/11/08 04:30:34;;;;;;;9.65;2.13;;;11.80;99.90;;;;;;6248966;22;20020;-82
2022/11/08 04:33:02;;;;;;;11.07;2.40;;;11.80;99.90;;;;;;6276639;22;20010;-82
2022/11/08 04:35:28;;;;;;;9.80;2.00;;;11.80;99.90;;;;;;6248118;22;20018;-82
2022/11/08 04:37:58;;;;;;;10.38;2.30;;;11.80;99.90;;;;;;6275906;22;20022;-82
2022/11/08 04:40:24;;;;;;;7.90;1.95;;;11.70;99.90;;;;;;6276571;22;20022;-82
2022/11/08 04:42:49;;;;;;;8.32;1.88;;;11.80;99.90;;;;;;6247934;22;20396;-82
2022/11/08 04:45:15;;;;;;;8.77;2.00;;;11.70;99.90;;;;;;6275329;22;20012;-83
2022/11/08 04:47:40;;;;;;;10.70;2.28;;;11.70;99.90;;;;;;6248621;22;20081;-83
2022/11/08 04:50:06;;;;;;;8.85;1.90;;;11.80;99.90;;;;;;6247473;22;20054;-82
2022/11/08 04:52:32;;;;;;;6.53;1.85;;;11.70;99.90;;;;;;6248724;22;20023;-82
2022/11/08 04:54:57;;;;;;;6.93;1.73;;;11.70;99.90;;;;;;6247877;22;20030;-82
2022/11/08 04:57:23;;;;;;;7.78;1.95;;;11.70;99.90;;;;;;6248937;22;20086;-82
2022/11/08 04:59:49;;;;;;;11.75;2.28;;;11.70;99.90;;;;;;6275573;22;20034;-82
2022/11/08 05:02:14;;;;;;;7.32;1.70;;;11.70;99.90;;;;;;6246836;22;20027;-82
2022/11/08 05:04:40;;;;;;;6.30;1.83;;;11.70;99.90;;;;;;6271686;22;20077;-82
2022/11/08 05:07:06;;;;;;;10.73;2.35;;;11.70;99.90;;;;;;6272634;22;20641;-81
2022/11/08 05:09:31;;;;;;;8.13;1.90;;;11.70;99.90;;;;;;6246958;22;20016;-82
2022/11/08 05:11:57;;;;;;;11.38;2.03;;;11.70;99.90;;;;;;6247604;22;20047;-82
2022/11/08 05:14:22;;;;;;;5.35;1.60;;;11.70;99.90;;;;;;6248556;22;20051;-82
2022/11/08 05:16:48;;;;;;;7.47;2.00;;;11.70;99.90;;;;;;6273834;22;20335;-82
2022/11/08 05:23:22;;;;;;;6.95;1.73;;;11.60;99.90;;;;;;6248027;22;20103;-82
2022/11/08 05:24:43;;;;;;;9.43;1.90;;;11.60;99.90;;;;;;6246157;22;20020;-83
2022/11/08 05:27:09;;;;;;;6.82;1.80;;;11.60;99.90;;;;;;6248492;22;20013;-88
2022/11/08 05:29:34;;;;;;;9.68;2.13;;;11.60;99.90;;;;;;6247869;22;20012;-88
2022/11/08 05:32:00;;;;;;;7.03;1.83;;;11.70;99.90;;;;;;6247933;22;20321;-88
2022/11/08 05:34:25;;;;;;;7.53;1.85;;;11.60;99.90;;;;;;6249609;22;20011;-88
2022/11/08 05:36:51;;;;;;;7.60;1.80;;;11.60;99.90;;;;;;6276531;22;20024;-84
2022/11/08 05:39:17;;;;;;;9.73;1.52;;;11.60;99.90;;;;;;6275593;22;20070;-82
2022/11/08 05:41:42;;;;;;;6.30;1.90;;;11.60;99.90;;;;;;6277631;22;20436;-83
2022/11/08 05:44:08;;;;;;;7.40;1.92;;;11.60;99.90;;;;;;6249992;22;20665;-82
2022/11/08 05:46:34;;;;;;;6.97;1.90;;;11.60;99.90;;;;;;6249177;22;20051;-81
2022/11/08 05:48:59;;;;;;;8.40;2.20;;;11.60;99.90;;;;;;6249250;22;20019;-81
2022/11/08 05:51:25;;;;;;;6.75;1.50;;;11.60;99.90;;;;;;6248993;22;20142;-81
2022/11/08 05:53:50;;;;;;;7.25;1.63;;;11.60;99.90;;;;;;6276970;22;20015;-82
2022/11/08 05:56:17;;;;;;;6.00;1.60;;;11.50;99.90;;;;;;6249689;22;20008;-82
2022/11/08 05:58:43;;;;;;;10.18;1.77;;;11.50;99.90;;;;;;6275890;22;20016;-82
2022/11/08 06:01:14;;;;;;;7.38;1.65;;;11.50;99.90;;;;;;6249656;22;20012;-81
2022/11/08 06:03:40;;;;;;;8.57;1.92;;;11.50;99.90;;;;;;6248893;22;20015;-81
2022/11/08 06:06:19;;;;;;;7.38;1.70;;;11.50;99.90;;;;;;6274762;22;20004;-82
2022/11/08 06:08:45;;;;;;;7.03;1.42;;;11.50;99.90;;;;;;6276566;22;20012;-84
2022/11/08 06:14:21;;;;;;;11.10;1.88;;;11.50;99.90;;;;;;6248759;22;20348;-83
2022/11/08 06:16:58;;;;;;;6.47;1.75;;;11.40;99.90;;;;;;6248786;22;20024;-82
2022/11/08 06:19:26;;;;;;;6.28;1.73;;;11.50;99.90;;;;;;6275912;22;20046;-82
2022/11/08 06:21:52;;;;;;;7.18;1.75;;;11.40;99.90;;;;;;6249699;22;20023;-82
2022/11/08 06:24:24;;;;;;;7.57;1.98;;;11.50;99.90;;;;;;6277528;22;20019;-82
2022/11/08 06:26:52;;;;;;;5.68;1.60;;;11.40;99.90;;;;;;6248108;22;20462;-81
2022/11/08 06:29:27;;;;;;;7.57;1.80;;;11.50;99.90;;;;;;6250217;22;20019;-82
2022/11/08 06:31:57;;;;;;;8.02;2.10;;;11.40;99.90;;;;;;6247436;22;20020;-82
2022/11/08 06:34:41;;;;;;;10.55;2.10;;;11.50;99.90;;;;;;6248657;22;20012;-82
2022/11/08 06:37:14;;;;;;;8.50;1.70;;;11.40;99.90;;;;;;6276238;22;20015;-82
2022/11/08 06:39:48;;;;;;;9.90;1.97;;;11.40;99.90;;;;;;6249329;22;20448;-82
2022/11/08 06:42:23;;;;;;;10.27;2.38;;;11.40;99.90;;;;;;6275724;22;20264;-82
2022/11/08 06:44:49;;;;;;;9.30;2.13;;;11.40;99.90;;;;;;6248592;22;20024;-82
2022/11/08 06:47:27;;;;;;;5.53;1.80;;;11.40;99.90;;;;;;6248129;22;20399;-83
2022/11/08 06:50:05;;;;;;;6.85;2.13;;;11.40;99.90;;;;;;6249195;22;20019;-83
2022/11/08 06:52:37;;;;;;;7.00;1.80;;;11.40;99.90;;;;;;6248820;22;20382;-82
2022/11/08 06:55:12;;;;;;;7.32;2.10;;;11.40;99.90;;;;;;6248053;22;20015;-83
2022/11/08 06:57:40;;;;;;;7.10;2.08;;;11.40;99.90;;;;;;6275954;22;20520;-83
2022/11/08 07:00:09;;;;;;;7.95;1.90;;;11.40;99.90;;;;;;6248372;22;20023;-83
2022/11/08 07:02:44;;;;;;;6.18;2.22;;;11.40;99.90;;;;;;6248646;22;20008;-83
2022/11/08 07:05:13;;;;;;;9.60;2.28;;;11.40;99.90;;;;;;6249584;22;20316;-82
2022/11/08 07:07:42;;;;;;;7.20;2.17;;;11.40;99.90;;;;;;6276848;22;20050;-83
2022/11/08 07:10:17;;;;;;;8.85;2.50;;;11.40;99.90;;;;;;6248205;22;20065;-82
2022/11/08 07:12:43;;;;;;;8.00;2.30;;;11.40;99.90;;;;;;6275743;22;20022;-82
2022/11/08 07:15:32;;;;;;;9.02;2.33;;;11.40;99.90;;;;;;6222760;22;20452;-83
2022/11/08 07:18:21;;;;;;;5.85;1.92;;;11.40;99.90;;;;;;6247414;22;20015;-82
2022/11/08 07:21:12;;;;;;;8.60;2.25;;;11.40;99.90;;;;;;6248736;22;20015;-82
2022/11/08 07:23:48;;;;;;;7.85;2.20;;;11.40;99.90;;;;;;6247709;22;20011;-82
2022/11/08 07:29:59;;;;;;;8.20;2.00;;;11.40;99.90;;;;;;6271808;22;20069;-83
2022/11/08 07:32:30;;;;;;;6.03;2.10;;;11.40;99.90;;;;;;6249003;22;20015;-82
2022/11/08 07:35:03;;;;;;;9.23;2.15;;;11.40;99.90;;;;;;6248454;22;20023;-82
2022/11/08 07:37:32;;;;;;;7.75;1.90;;;11.40;99.90;;;;;;6248013;22;20395;-84
2022/11/08 07:40:01;;;;;;;9.43;2.35;;;11.40;99.90;;;;;;6274952;22;20019;-82
2022/11/08 07:42:45;;;;;;;7.80;2.10;;;11.50;99.90;;;;;;6249207;22;20098;-82
2022/11/08 07:45:16;;;;;;;8.45;1.90;;;11.50;99.90;;;;;;6248102;22;20049;-82
2022/11/08 07:47:45;;;;;;;8.32;2.10;;;11.40;99.90;;;;;;6249258;22;20070;-82
2022/11/08 07:50:14;;;;;;;9.90;2.40;;;11.50;99.90;;;;;;6249276;22;20058;-82
2022/11/08 07:52:52;;;;;;;10.05;2.30;;;11.50;99.90;;;;;;6247788;22;20027;-82
2022/11/08 07:55:25;;;;;;;30.50;18.88;;;11.50;99.90;;;;;;6249528;22;20099;-82
2022/11/08 07:57:55;;;;;;;13.45;6.93;;;11.50;99.90;;;;;;6275144;22;20439;-82
2022/11/08 08:00:24;;;;;;;8.43;3.17;;;11.50;99.90;;;;;;6276712;22;20024;-82
2022/11/08 08:03:19;;;;;;;9.90;3.72;;;11.50;99.90;;;;;;6248089;22;20317;-82
2022/11/08 08:05:54;;;;;;;9.68;2.92;;;11.50;99.90;;;;;;6232030;23;20345;-82
2022/11/08 08:08:23;;;;;;;11.10;2.90;;;11.60;99.90;;;;;;6217808;23;20551;-82
2022/11/08 08:10:59;;;;;;;10.05;3.17;;;11.50;99.90;;;;;;6218465;23;20023;-83
2022/11/08 08:13:31;;;;;;;8.30;2.47;;;11.60;99.90;;;;;;6243891;23;20020;-82
2022/11/08 08:16:04;;;;;;;8.50;2.40;;;11.60;99.90;;;;;;6218231;23;20107;-82
2022/11/08 08:18:30;;;;;;;7.60;2.22;;;11.60;99.90;;;;;;6218329;23;20087;-82
2022/11/08 08:21:10;;;;;;;5.95;2.30;;;11.60;99.90;;;;;;6217419;23;20479;-82
2022/11/08 08:23:36;;;;;;;7.15;2.22;;;11.70;99.90;;;;;;6218481;23;20012;-83
2022/11/08 08:26:02;;;;;;;7.35;2.30;;;11.60;99.90;;;;;;6217159;23;20022;-82
2022/11/08 08:28:27;;;;;;;6.80;2.35;;;11.70;99.90;;;;;;6218395;23;20023;-82
2022/11/08 08:30:53;;;;;;;6.63;2.42;;;11.70;99.90;;;;;;6218324;23;20012;-82
2022/11/08 08:33:18;;;;;;;7.55;2.30;;;11.70;99.90;;;;;;6244371;23;20012;-82
2022/11/08 08:35:44;;;;;;;7.00;2.20;;;11.70;99.90;;;;;;6218032;23;20023;-84
2022/11/08 08:38:11;;;;;;;8.23;2.00;;;11.70;99.90;;;;;;6245593;23;20027;-83
2022/11/08 08:40:37;;;;;;;6.05;2.30;;;11.70;99.90;;;;;;6217813;23;20348;-83
2022/11/08 08:43:04;;;;;;;9.52;2.28;;;11.80;99.90;;;;;;6218153;23;20020;-83
2022/11/08 08:45:34;;;;;;;7.22;2.08;;;11.80;99.90;;;;;;6245883;23;20013;-83
2022/11/08 08:48:00;;;;;;;5.85;2.22;;;11.80;99.90;;;;;;6244057;23;20027;-83
2022/11/08 08:50:29;;;;;;;6.05;2.00;;;11.80;99.90;;;;;;6218717;23;20066;-84
2022/11/08 08:53:02;;;;;;;9.07;2.40;;;11.90;99.90;;;;;;6244772;23;20012;-83
2022/11/08 08:55:28;;;;;;;6.43;2.00;;;11.90;99.90;;;;;;6217723;23;20020;-83
2022/11/08 08:57:53;;;;;;;9.68;2.03;;;11.90;99.90;;;;;;6218288;23;20015;-83
2022/11/08 09:00:20;;;;;;;7.78;1.98;;;12.00;99.90;;;;;;6245159;23;20020;-83
2022/11/08 09:02:45;;;;;;;6.50;1.92;;;12.00;99.90;;;;;;6244424;23;20103;-84
2022/11/08 09:05:12;;;;;;;8.40;2.17;;;12.10;99.90;;;;;;6245323;23;20047;-83
2022/11/08 09:07:38;;;;;;;6.22;1.98;;;12.10;99.90;;;;;;6243208;23;20020;-84
2022/11/08 09:10:04;;;;;;;4.20;1.75;;;12.20;99.90;;;;;;6218924;23;20083;-82
2022/11/08 09:12:31;;;;;;;7.35;1.70;;;12.10;99.90;;;;;;6220113;23;20031;-82
2022/11/08 09:14:56;;;;;;;7.75;2.17;;;12.20;99.90;;;;;;6247348;23;20075;-82
2022/11/08 09:17:22;;;;;;;7.35;2.17;;;12.20;99.90;;;;;;6219879;23;20012;-82
2022/11/08 09:19:48;;;;;;;7.22;1.60;;;12.30;99.90;;;;;;6219876;23;20016;-82
2022/11/08 09:22:14;;;;;;;7.00;2.10;;;12.30;99.80;;;;;;6245108;23;20016;-82
2022/11/08 09:24:40;;;;;;;8.35;2.42;;;12.40;99.70;;;;;;6247062;23;20071;-82
2022/11/08 09:27:05;;;;;;;6.78;1.98;;;12.40;99.70;;;;;;6246747;23;20091;-83
2022/11/08 09:29:32;;;;;;;8.35;2.10;;;12.50;99.70;;;;;;6219303;23;20028;-82
2022/11/08 09:31:59;;;;;;;6.75;1.80;;;12.50;99.60;;;;;;6247122;23;20012;-83
2022/11/08 09:34:24;;;;;;;4.60;1.77;;;12.50;99.50;;;;;;6247099;23;20034;-82
2022/11/08 09:36:50;;;;;;;5.38;2.10;;;12.50;99.40;;;;;;6245297;23;20101;-82
2022/11/08 09:39:16;;;;;;;5.88;1.90;;;12.60;99.40;;;;;;6219754;23;20030;-82
2022/11/08 09:41:54;;;;;;;6.75;2.13;;;12.60;99.40;;;;;;6220425;23;20023;-82
2022/11/08 09:44:34;;;;;;;7.13;2.00;;;12.60;99.30;;;;;;6218897;23;20095;-81
2022/11/08 09:47:13;;;;;;;7.00;1.83;;;12.70;99.20;;;;;;6219482;23;20356;-82
2022/11/08 09:49:47;;;;;;;5.53;2.17;;;12.70;99.00;;;;;;6219886;23;20023;-82
2022/11/08 09:52:23;;;;;;;6.88;1.90;;;12.70;99.00;;;;;;6245738;23;20100;-81
2022/11/08 09:54:51;;;;;;;5.63;1.80;;;12.70;98.80;;;;;;6246990;23;20063;-81
2022/11/08 09:57:33;;;;;;;7.90;2.00;;;12.80;98.70;;;;;;6220146;23;20012;-82
2022/11/08 10:00:04;;;;;;;5.18;1.73;;;12.80;98.30;;;;;;6246287;23;20019;-82
2022/11/08 10:02:31;;;;;;;6.00;2.28;;;12.90;98.20;;;;;;6246608;23;20030;-82
2022/11/08 10:05:01;;;;;;;9.10;2.03;;;12.90;98.20;;;;;;6245153;23;20024;-82
2022/11/08 10:07:48;;;;;;;6.95;1.95;;;12.90;98.10;;;;;;6246808;23;20094;-82
2022/11/08 10:10:47;;;;;;;6.22;2.50;;;13.00;97.90;;;;;;6220334;23;20020;-82
2022/11/08 10:13:48;;;;;;;6.80;2.00;;;13.00;97.90;;;;;;6246020;23;20027;-83
2022/11/08 10:16:35;;;;;;;5.32;2.47;;;13.00;98.00;;;;;;6225206;23;20012;-83
2022/11/08 10:19:33;;;;;;;7.60;2.25;;;13.10;98.00;;;;;;6259464;23;20051;-83
2022/11/08 10:22:21;;;;;;;8.77;2.30;;;13.10;97.70;;;;;;6246279;23;20020;-83
2022/11/08 10:24:56;;;;;;;5.70;1.80;;;13.10;97.80;;;;;;6246852;23;20023;-81
2022/11/08 10:27:34;;;;;;;6.10;1.80;;;13.10;97.60;;;;;;6245878;23;20016;-80
2022/11/08 10:30:03;;;;;;;6.30;2.00;;;13.20;97.40;;;;;;6246629;23;20425;-81
2022/11/08 10:32:31;;;;;;;5.25;1.80;;;13.20;97.30;;;;;;6219378;23;20034;-80
2022/11/08 10:35:12;;;;;;;4.28;1.65;;;13.30;97.40;;;;;;6218868;23;20020;-80
2022/11/08 10:37:41;;;;;;;7.18;2.15;;;13.30;97.30;;;;;;6237353;23;20310;-80
2022/11/08 10:40:16;;;;;;;7.60;1.90;;;13.30;97.10;;;;;;6245481;23;20087;-81
2022/11/08 10:42:49;;;;;;;6.07;2.40;;;13.30;97.10;;;;;;6247117;23;20074;-82
2022/11/08 10:45:15;;;;;;;6.97;1.85;;;13.40;97.10;;;;;;6246764;23;20403;-81
2022/11/08 10:47:43;;;;;;;4.97;1.80;;;13.40;97.00;;;;;;6218603;23;20024;-81
2022/11/08 10:50:19;;;;;;;6.20;1.85;;;13.40;96.90;;;;;;6219448;23;20019;-81
2022/11/08 10:52:52;;;;;;;5.40;2.00;;;13.40;96.80;;;;;;6245954;23;20019;-80
2022/11/08 10:55:23;;;;;;;;;;;13.40;96.90;;;;;;6246399;23;20016;-80
2022/11/08 10:57:49;;;;;;;6.05;2.00;;;13.40;96.80;;;;;;6246245;23;19916;-81
2022/11/08 11:00:30;;;;;;;6.72;1.45;;;13.40;97.10;;;;;;6219423;23;20108;-81
2022/11/08 11:03:14;;;;;;;6.93;1.75;;;13.40;96.80;;;;;;6217354;23;20487;-81
2022/11/08 11:05:42;;;;;;;5.00;1.60;;;13.40;96.80;;;;;;6246438;23;20024;-81
2022/11/08 11:08:08;;;;;;;6.80;1.75;;;13.40;96.90;;;;;;6247205;23;20016;-82
2022/11/08 11:10:37;;;;;;;5.82;1.90;;;13.50;96.70;;;;;;6247253;23;20016;-82
2022/11/08 11:13:05;;;;;;;8.15;1.70;;;13.40;96.70;;;;;;6219569;23;20052;-82
2022/11/08 11:15:36;;;;;;;4.93;1.77;;;13.50;96.70;;;;;;6218454;23;20523;-82
2022/11/08 11:18:03;;;;;;;5.15;1.60;;;13.40;96.80;;;;;;6245777;23;20016;-82
2022/11/08 11:20:30;;;;;;;5.43;1.88;;;13.40;96.80;;;;;;6218965;23;20012;-83
2022/11/08 11:22:58;;;;;;;5.93;2.10;;;13.50;96.90;;;;;;6248434;23;20027;-82
2022/11/08 11:25:24;;;;;;;6.03;1.80;;;13.50;96.90;;;;;;6218776;23;20016;-83
2022/11/08 11:27:55;;;;;;;5.30;1.75;;;13.50;97.00;;;;;;6245482;23;20441;-83
2022/11/08 11:30:23;;;;;;;6.07;1.60;;;13.50;96.90;;;;;;6217279;23;20023;-82
2022/11/08 11:33:38;;;;;;;6.32;1.70;;;13.50;96.90;;;;;;6217645;23;20062;-87
2022/11/08 11:40:07;;;;;;;4.55;1.60;;;13.60;96.60;;;;;;6275796;22;20031;-87
2022/11/08 11:42:56;;;;;;;5.20;1.52;;;13.60;96.30;;;;;;6249041;22;20026;-80
2022/11/08 11:45:30;;;;;;;6.75;1.60;;;13.60;96.50;;;;;;6248477;22;20431;-82
2022/11/08 11:48:00;;;;;;;5.53;1.80;;;13.60;96.60;;;;;;6248352;22;20043;-82
2022/11/08 11:50:35;;;;;;;7.35;1.70;;;13.70;96.50;;;;;;6248117;22;20443;-81
2022/11/08 11:53:06;;;;;;;7.38;1.90;;;13.70;96.20;;;;;;6247850;22;20023;-81
2022/11/08 11:55:58;;;;;;;8.27;1.83;;;13.70;96.30;;;;;;6276043;22;20035;-82
2022/11/08 11:59:08;;;;;;;4.13;1.40;;;13.80;96.30;;;;;;6261717;22;20050;-81
2022/11/08 12:01:46;;;;;;;7.63;1.80;;;13.70;96.00;;;;;;6248700;22;20016;-82
2022/11/08 12:04:31;;;;;;;5.10;1.70;;;13.80;96.20;;;;;;6247437;22;20008;-81
2022/11/08 12:06:57;;;;;;;5.88;1.67;;;13.80;96.10;;;;;;6275366;22;20027;-82
2022/11/08 12:09:25;;;;;;;5.97;1.88;;;13.80;96.20;;;;;;6248699;22;20016;-82
2022/11/08 12:12:19;;;;;;;5.03;1.83;;;13.90;96.20;;;;;;6274769;22;20020;-82
2022/11/08 12:15:07;;;;;;;5.20;1.80;;;13.90;95.90;;;;;;6275955;22;20016;-81
2022/11/08 12:17:55;;;;;;;4.43;1.67;;;13.90;96.10;;;;;;6275519;22;20023;-81
2022/11/08 12:20:28;;;;;;;5.72;1.73;;;14.00;95.90;;;;;;6247647;22;20106;-82
2022/11/08 12:22:57;;;;;;;6.07;1.60;;;13.90;96.00;;;;;;6247328;22;20309;-82
2022/11/08 12:25:31;;;;;;;8.43;3.50;;;14.00;95.80;;;;;;6247635;22;20020;-81
2022/11/08 12:28:06;;;;;;;8.13;2.22;;;14.00;95.70;;;;;;6248900;22;20348;-82
2022/11/08 12:31:14;;;;;;;5.28;1.80;;;14.00;95.80;;;;;;6248263;22;20019;-82
2022/11/08 12:34:14;;;;;;;4.93;1.48;;;14.00;95.80;;;;;;6247382;22;20081;-82
2022/11/08 12:36:47;;;;;;;5.32;1.60;;;14.10;95.80;;;;;;6248284;22;20035;-82
2022/11/08 12:39:27;;;;;;;6.88;2.00;;;14.10;96.00;;;;;;6275328;22;20011;-82
2022/11/08 12:42:08;;;;;;;5.82;1.67;;;14.10;95.80;;;;;;6248809;22;20065;-82
2022/11/08 12:45:03;;;;;;;7.03;1.70;;;14.10;95.80;;;;;;6251518;22;20022;-82
2022/11/08 12:47:47;;;;;;;4.72;1.40;;;14.10;95.70;;;;;;6250449;22;20016;-83
2022/11/08 12:50:53;;;;;;;4.85;1.67;;;14.10;95.60;;;;;;6250747;22;20026;-82
2022/11/08 12:53:42;;;;;;;4.88;1.80;;;14.10;95.60;;;;;;6249703;22;20099;-82
2022/11/08 12:56:35;;;;;;;10.02;2.28;;;14.10;95.50;;;;;;6250317;22;20387;-82
2022/11/08 12:59:02;;;;;;;5.97;2.10;;;14.20;95.50;;;;;;6250697;22;20106;-83
2022/11/08 13:01:31;;;;;;;5.60;1.55;;;14.20;95.50;;;;;;6250012;22;20046;-83
2022/11/08 13:04:54;;;;;;;4.70;1.63;;;14.20;95.50;;;;;;6275808;22;20042;-82
2022/11/08 13:07:47;;;;;;;5.82;1.70;;;14.20;95.30;;;;;;6276286;22;20023;-83
2022/11/08 13:10:21;;;;;;;6.90;1.65;;;14.30;95.30;;;;;;6250552;22;20081;-83
2022/11/08 13:13:36;;;;;;;4.65;1.58;;;14.30;95.40;;;;;;6250309;22;20089;-83
2022/11/08 13:16:18;;;;;;;7.22;1.77;;;14.30;95.30;;;;;;6248865;22;20408;-83
2022/11/08 13:19:04;;;;;;;;;;;;;;;;;;;;;
2022/11/08 13:21:42;;;;;;;10.65;2.13;;;14.30;95.10;;;;;;6276903;22;20042;-83
2022/11/08 13:24:32;;;;;;;5.55;1.50;;;14.30;95.00;;;;;;6249692;22;20019;-83
2022/11/08 13:27:26;;;;;;;7.43;1.67;;;14.30;94.90;;;;;;6250515;22;20023;-82
2022/11/08 13:30:22;;;;;;;5.63;1.65;;;14.30;95.20;;;;;;6249036;22;20012;-82
2022/11/08 13:33:18;;;;;;;4.60;1.77;;;14.30;95.40;;;;;;6238348;22;20401;-82
2022/11/08 13:36:40;;;;;;;6.25;1.50;;;14.30;95.50;;;;;;6271166;22;20016;-81
2022/11/08 13:40:02;;;;;;;5.35;1.75;;;14.30;95.30;;;;;;6152774;23;20053;-82
2022/11/08 13:43:02;;;;;;;7.40;1.90;;;14.30;95.30;;;;;;6129028;23;20453;-82